sensor_id;sensor_type;location;lat;lon;timestamp;P1;durP1;ratioP1;P2;durP2;ratioP2
33138;SDS011;19501;50.948;5.316;2022-11-15T00:00:16;31.17;;;15.70;;
33138;SDS011;19501;50.948;5.316;2022-11-15T00:02:42;32.90;;;15.27;;
33138;SDS011;19501;50.948;5.316;2022-11-15T00:05:08;33.08;;;16.17;;
33138;SDS011;19501;50.948;5.316;2022-11-15T00:07:33;32.17;;;16.00;;
33138;SDS011;19501;50.948;5.316;2022-11-15T00:09:59;33.75;;;15.07;;
33138;SDS011;19501;50.948;5.316;2022-11-15T00:12:26;33.53;;;14.93;;
33138;SDS011;19501;50.948;5.316;2022-11-15T00:14:53;36.67;;;15.70;;
33138;SDS011;19501;50.948;5.316;2022-11-15T00:17:21;31.50;;;15.55;;
33138;SDS011;19501;50.948;5.316;2022-11-15T00:19:47;31.65;;;14.75;;
33138;SDS011;19501;50.948;5.316;2022-11-15T00:22:12;31.83;;;14.63;;
33138;SDS011;19501;50.948;5.316;2022-11-15T00:24:38;31.52;;;15.52;;
33138;SDS011;19501;50.948;5.316;2022-11-15T00:27:04;33.92;;;14.45;;
33138;SDS011;19501;50.948;5.316;2022-11-15T00:29:30;31.30;;;15.13;;
33138;SDS011;19501;50.948;5.316;2022-11-15T00:31:56;28.75;;;14.18;;
33138;SDS011;19501;50.948;5.316;2022-11-15T00:34:22;39.72;;;15.27;;
33138;SDS011;19501;50.948;5.316;2022-11-15T00:36:48;32.15;;;15.75;;
33138;SDS011;19501;50.948;5.316;2022-11-15T00:39:13;33.97;;;14.85;;
33138;SDS011;19501;50.948;5.316;2022-11-15T00:41:39;31.45;;;15.43;;
33138;SDS011;19501;50.948;5.316;2022-11-15T00:44:05;30.48;;;15.18;;
33138;SDS011;19501;50.948;5.316;2022-11-15T00:46:31;32.65;;;15.95;;
33138;SDS011;19501;50.948;5.316;2022-11-15T00:48:57;31.80;;;14.00;;
33138;SDS011;19501;50.948;5.316;2022-11-15T00:51:23;33.42;;;14.85;;
33138;SDS011;19501;50.948;5.316;2022-11-15T00:53:49;33.08;;;16.25;;
33138;SDS011;19501;50.948;5.316;2022-11-15T00:56:15;31.70;;;16.33;;
33138;SDS011;19501;50.948;5.316;2022-11-15T00:58:40;32.17;;;15.93;;
33138;SDS011;19501;50.948;5.316;2022-11-15T01:01:10;34.22;;;16.65;;
33138;SDS011;19501;50.948;5.316;2022-11-15T01:03:37;31.25;;;15.75;;
33138;SDS011;19501;50.948;5.316;2022-11-15T01:06:04;35.30;;;16.10;;
33138;SDS011;19501;50.948;5.316;2022-11-15T01:08:30;36.83;;;15.45;;
33138;SDS011;19501;50.948;5.316;2022-11-15T01:11:00;31.50;;;15.45;;
33138;SDS011;19501;50.948;5.316;2022-11-15T01:13:29;30.40;;;14.85;;
33138;SDS011;19501;50.948;5.316;2022-11-15T01:15:56;32.13;;;14.65;;
33138;SDS011;19501;50.948;5.316;2022-11-15T01:18:21;33.47;;;15.82;;
33138;SDS011;19501;50.948;5.316;2022-11-15T01:20:47;31.27;;;14.75;;
33138;SDS011;19501;50.948;5.316;2022-11-15T01:23:12;32.72;;;15.40;;
33138;SDS011;19501;50.948;5.316;2022-11-15T01:25:38;31.88;;;15.10;;
33138;SDS011;19501;50.948;5.316;2022-11-15T01:28:03;31.65;;;15.60;;
33138;SDS011;19501;50.948;5.316;2022-11-15T01:30:29;32.60;;;14.95;;
33138;SDS011;19501;50.948;5.316;2022-11-15T01:32:55;34.00;;;15.20;;
33138;SDS011;19501;50.948;5.316;2022-11-15T01:35:20;28.55;;;14.60;;
33138;SDS011;19501;50.948;5.316;2022-11-15T01:37:49;29.15;;;13.77;;
33138;SDS011;19501;50.948;5.316;2022-11-15T01:40:15;31.15;;;15.75;;
33138;SDS011;19501;50.948;5.316;2022-11-15T01:42:40;30.45;;;14.85;;
33138;SDS011;19501;50.948;5.316;2022-11-15T01:45:12;32.15;;;14.82;;
33138;SDS011;19501;50.948;5.316;2022-11-15T01:47:40;32.70;;;15.48;;
33138;SDS011;19501;50.948;5.316;2022-11-15T01:50:10;31.60;;;15.23;;
33138;SDS011;19501;50.948;5.316;2022-11-15T01:52:40;32.80;;;15.32;;
33138;SDS011;19501;50.948;5.316;2022-11-15T01:55:14;29.42;;;14.60;;
33138;SDS011;19501;50.948;5.316;2022-11-15T01:57:44;32.22;;;14.88;;
33138;SDS011;19501;50.948;5.316;2022-11-15T02:00:13;32.00;;;15.25;;
33138;SDS011;19501;50.948;5.316;2022-11-15T02:02:39;29.52;;;15.32;;
33138;SDS011;19501;50.948;5.316;2022-11-15T02:05:05;33.05;;;14.57;;
33138;SDS011;19501;50.948;5.316;2022-11-15T02:07:31;31.42;;;14.68;;
33138;SDS011;19501;50.948;5.316;2022-11-15T02:09:59;28.83;;;13.55;;
33138;SDS011;19501;50.948;5.316;2022-11-15T02:12:38;33.83;;;13.82;;
33138;SDS011;19501;50.948;5.316;2022-11-15T02:15:04;29.58;;;14.55;;
33138;SDS011;19501;50.948;5.316;2022-11-15T02:20:32;30.17;;;14.88;;
33138;SDS011;19501;50.948;5.316;2022-11-15T02:31:36;31.63;;;14.13;;
33138;SDS011;19501;50.948;5.316;2022-11-15T02:39:54;33.17;;;13.63;;
33138;SDS011;19501;50.948;5.316;2022-11-15T02:42:50;29.35;;;13.32;;
33138;SDS011;19501;50.948;5.316;2022-11-15T02:45:40;28.35;;;13.73;;
33138;SDS011;19501;50.948;5.316;2022-11-15T02:48:11;29.00;;;13.05;;
33138;SDS011;19501;50.948;5.316;2022-11-15T02:50:38;28.20;;;13.05;;
33138;SDS011;19501;50.948;5.316;2022-11-15T02:53:05;26.58;;;12.82;;
33138;SDS011;19501;50.948;5.316;2022-11-15T02:55:34;26.38;;;13.85;;
33138;SDS011;19501;50.948;5.316;2022-11-15T02:58:07;33.88;;;13.00;;
33138;SDS011;19501;50.948;5.316;2022-11-15T03:01:04;33.03;;;13.38;;
33138;SDS011;19501;50.948;5.316;2022-11-15T03:03:48;27.73;;;13.38;;
33138;SDS011;19501;50.948;5.316;2022-11-15T03:09:10;29.95;;;13.85;;
33138;SDS011;19501;50.948;5.316;2022-11-15T03:11:56;31.27;;;14.05;;
33138;SDS011;19501;50.948;5.316;2022-11-15T03:14:34;28.95;;;13.80;;
33138;SDS011;19501;50.948;5.316;2022-11-15T03:19:56;30.15;;;14.13;;
33138;SDS011;19501;50.948;5.316;2022-11-15T03:22:24;31.00;;;14.68;;
33138;SDS011;19501;50.948;5.316;2022-11-15T03:24:57;30.83;;;14.40;;
33138;SDS011;19501;50.948;5.316;2022-11-15T03:27:27;29.48;;;13.88;;
33138;SDS011;19501;50.948;5.316;2022-11-15T03:29:57;29.38;;;13.18;;
33138;SDS011;19501;50.948;5.316;2022-11-15T03:32:34;26.35;;;12.93;;
33138;SDS011;19501;50.948;5.316;2022-11-15T03:37:42;30.05;;;13.95;;
33138;SDS011;19501;50.948;5.316;2022-11-15T03:40:13;28.23;;;13.13;;
33138;SDS011;19501;50.948;5.316;2022-11-15T03:42:43;27.65;;;12.98;;
33138;SDS011;19501;50.948;5.316;2022-11-15T03:45:36;26.45;;;12.65;;
33138;SDS011;19501;50.948;5.316;2022-11-15T03:48:15;25.13;;;12.18;;
33138;SDS011;19501;50.948;5.316;2022-11-15T03:50:47;27.92;;;13.27;;
33138;SDS011;19501;50.948;5.316;2022-11-15T03:53:13;27.15;;;12.50;;
33138;SDS011;19501;50.948;5.316;2022-11-15T03:55:39;28.83;;;13.13;;
33138;SDS011;19501;50.948;5.316;2022-11-15T03:58:05;26.63;;;13.20;;
33138;SDS011;19501;50.948;5.316;2022-11-15T04:00:31;26.42;;;13.10;;
33138;SDS011;19501;50.948;5.316;2022-11-15T04:02:58;28.23;;;12.07;;
33138;SDS011;19501;50.948;5.316;2022-11-15T04:05:24;25.95;;;12.18;;
33138;SDS011;19501;50.948;5.316;2022-11-15T04:07:49;24.77;;;11.55;;
33138;SDS011;19501;50.948;5.316;2022-11-15T04:10:15;26.13;;;12.75;;
33138;SDS011;19501;50.948;5.316;2022-11-15T04:12:42;24.98;;;11.95;;
33138;SDS011;19501;50.948;5.316;2022-11-15T04:15:12;27.00;;;12.05;;
33138;SDS011;19501;50.948;5.316;2022-11-15T04:17:46;25.55;;;12.45;;
33138;SDS011;19501;50.948;5.316;2022-11-15T04:20:17;26.00;;;13.02;;
33138;SDS011;19501;50.948;5.316;2022-11-15T04:23:10;25.13;;;12.55;;
33138;SDS011;19501;50.948;5.316;2022-11-15T04:25:56;24.55;;;11.90;;
33138;SDS011;19501;50.948;5.316;2022-11-15T04:28:24;28.70;;;12.55;;
33138;SDS011;19501;50.948;5.316;2022-11-15T04:30:51;23.17;;;10.82;;
33138;SDS011;19501;50.948;5.316;2022-11-15T04:33:17;25.20;;;12.00;;
33138;SDS011;19501;50.948;5.316;2022-11-15T04:35:43;25.10;;;11.30;;
33138;SDS011;19501;50.948;5.316;2022-11-15T04:38:29;26.00;;;11.20;;
33138;SDS011;19501;50.948;5.316;2022-11-15T04:40:54;25.15;;;11.75;;
33138;SDS011;19501;50.948;5.316;2022-11-15T04:43:20;27.50;;;11.85;;
33138;SDS011;19501;50.948;5.316;2022-11-15T04:45:46;26.23;;;11.15;;
33138;SDS011;19501;50.948;5.316;2022-11-15T04:48:12;24.83;;;12.02;;
33138;SDS011;19501;50.948;5.316;2022-11-15T04:50:37;25.05;;;11.93;;
33138;SDS011;19501;50.948;5.316;2022-11-15T04:53:03;24.88;;;11.40;;
33138;SDS011;19501;50.948;5.316;2022-11-15T04:55:29;25.25;;;10.80;;
33138;SDS011;19501;50.948;5.316;2022-11-15T04:57:58;19.63;;;7.80;;
33138;SDS011;19501;50.948;5.316;2022-11-15T05:00:24;17.25;;;6.55;;
33138;SDS011;19501;50.948;5.316;2022-11-15T05:02:51;18.73;;;6.50;;
33138;SDS011;19501;50.948;5.316;2022-11-15T05:05:35;17.38;;;5.78;;
33138;SDS011;19501;50.948;5.316;2022-11-15T05:08:01;15.90;;;5.32;;
33138;SDS011;19501;50.948;5.316;2022-11-15T05:10:27;13.10;;;5.25;;
33138;SDS011;19501;50.948;5.316;2022-11-15T05:12:53;15.48;;;5.55;;
33138;SDS011;19501;50.948;5.316;2022-11-15T05:15:18;13.80;;;5.05;;
33138;SDS011;19501;50.948;5.316;2022-11-15T05:17:44;15.45;;;5.50;;
33138;SDS011;19501;50.948;5.316;2022-11-15T05:20:11;14.93;;;5.45;;
33138;SDS011;19501;50.948;5.316;2022-11-15T05:22:37;14.93;;;5.15;;
33138;SDS011;19501;50.948;5.316;2022-11-15T05:25:03;15.57;;;4.88;;
33138;SDS011;19501;50.948;5.316;2022-11-15T05:27:32;13.70;;;4.65;;
33138;SDS011;19501;50.948;5.316;2022-11-15T05:29:58;14.52;;;4.18;;
33138;SDS011;19501;50.948;5.316;2022-11-15T05:32:24;13.30;;;4.53;;
33138;SDS011;19501;50.948;5.316;2022-11-15T05:34:50;14.15;;;4.43;;
33138;SDS011;19501;50.948;5.316;2022-11-15T05:37:16;11.50;;;4.35;;
33138;SDS011;19501;50.948;5.316;2022-11-15T05:39:43;13.10;;;4.68;;
33138;SDS011;19501;50.948;5.316;2022-11-15T05:42:12;21.30;;;5.05;;
33138;SDS011;19501;50.948;5.316;2022-11-15T05:44:40;14.98;;;5.25;;
33138;SDS011;19501;50.948;5.316;2022-11-15T05:47:10;13.80;;;5.10;;
33138;SDS011;19501;50.948;5.316;2022-11-15T05:49:38;16.65;;;5.03;;
33138;SDS011;19501;50.948;5.316;2022-11-15T05:52:06;17.40;;;5.65;;
33138;SDS011;19501;50.948;5.316;2022-11-15T05:54:35;20.30;;;6.35;;
33138;SDS011;19501;50.948;5.316;2022-11-15T05:57:02;17.33;;;5.88;;
33138;SDS011;19501;50.948;5.316;2022-11-15T05:59:29;18.52;;;6.90;;
33138;SDS011;19501;50.948;5.316;2022-11-15T06:01:56;19.30;;;6.30;;
33138;SDS011;19501;50.948;5.316;2022-11-15T06:04:23;21.55;;;6.95;;
33138;SDS011;19501;50.948;5.316;2022-11-15T06:06:48;19.55;;;6.80;;
33138;SDS011;19501;50.948;5.316;2022-11-15T06:09:14;18.83;;;7.47;;
33138;SDS011;19501;50.948;5.316;2022-11-15T06:11:39;25.38;;;9.00;;
33138;SDS011;19501;50.948;5.316;2022-11-15T06:14:05;19.52;;;7.75;;
33138;SDS011;19501;50.948;5.316;2022-11-15T06:16:31;18.38;;;7.50;;
33138;SDS011;19501;50.948;5.316;2022-11-15T06:18:56;23.67;;;7.90;;
33138;SDS011;19501;50.948;5.316;2022-11-15T06:21:22;19.00;;;6.95;;
33138;SDS011;19501;50.948;5.316;2022-11-15T06:23:48;19.95;;;7.82;;
33138;SDS011;19501;50.948;5.316;2022-11-15T06:26:14;18.58;;;7.72;;
33138;SDS011;19501;50.948;5.316;2022-11-15T06:28:39;18.98;;;7.47;;
33138;SDS011;19501;50.948;5.316;2022-11-15T06:31:06;19.35;;;6.82;;
33138;SDS011;19501;50.948;5.316;2022-11-15T06:33:34;19.58;;;6.72;;
33138;SDS011;19501;50.948;5.316;2022-11-15T06:36:03;19.48;;;7.20;;
33138;SDS011;19501;50.948;5.316;2022-11-15T06:38:30;21.27;;;7.75;;
33138;SDS011;19501;50.948;5.316;2022-11-15T06:41:03;20.65;;;6.80;;
33138;SDS011;19501;50.948;5.316;2022-11-15T06:43:31;17.17;;;6.72;;
33138;SDS011;19501;50.948;5.316;2022-11-15T06:46:00;20.08;;;7.00;;
33138;SDS011;19501;50.948;5.316;2022-11-15T06:48:27;24.95;;;7.22;;
33138;SDS011;19501;50.948;5.316;2022-11-15T06:50:55;20.85;;;6.50;;
33138;SDS011;19501;50.948;5.316;2022-11-15T06:53:22;19.02;;;6.28;;
33138;SDS011;19501;50.948;5.316;2022-11-15T06:55:49;20.88;;;6.47;;
33138;SDS011;19501;50.948;5.316;2022-11-15T06:58:15;21.38;;;6.30;;
33138;SDS011;19501;50.948;5.316;2022-11-15T07:00:41;18.05;;;6.38;;
33138;SDS011;19501;50.948;5.316;2022-11-15T07:03:07;16.60;;;5.95;;
33138;SDS011;19501;50.948;5.316;2022-11-15T07:05:34;17.60;;;6.40;;
33138;SDS011;19501;50.948;5.316;2022-11-15T07:08:00;18.40;;;5.53;;
33138;SDS011;19501;50.948;5.316;2022-11-15T07:10:26;19.00;;;5.93;;
33138;SDS011;19501;50.948;5.316;2022-11-15T07:12:52;15.60;;;5.78;;
33138;SDS011;19501;50.948;5.316;2022-11-15T07:15:20;17.48;;;6.28;;
33138;SDS011;19501;50.948;5.316;2022-11-15T07:17:47;15.32;;;5.78;;
33138;SDS011;19501;50.948;5.316;2022-11-15T07:20:15;15.20;;;5.53;;
33138;SDS011;19501;50.948;5.316;2022-11-15T07:22:42;16.38;;;6.57;;
33138;SDS011;19501;50.948;5.316;2022-11-15T07:25:10;17.45;;;6.03;;
33138;SDS011;19501;50.948;5.316;2022-11-15T07:27:36;20.05;;;6.68;;
33138;SDS011;19501;50.948;5.316;2022-11-15T07:30:01;17.17;;;6.15;;
33138;SDS011;19501;50.948;5.316;2022-11-15T07:32:28;20.48;;;7.03;;
33138;SDS011;19501;50.948;5.316;2022-11-15T07:34:54;21.77;;;6.85;;
33138;SDS011;19501;50.948;5.316;2022-11-15T07:37:20;17.55;;;6.90;;
33138;SDS011;19501;50.948;5.316;2022-11-15T07:39:45;20.80;;;7.15;;
33138;SDS011;19501;50.948;5.316;2022-11-15T07:42:11;20.00;;;7.03;;
33138;SDS011;19501;50.948;5.316;2022-11-15T07:44:55;19.10;;;6.85;;
33138;SDS011;19501;50.948;5.316;2022-11-15T07:47:21;19.95;;;6.97;;
33138;SDS011;19501;50.948;5.316;2022-11-15T07:49:47;20.95;;;7.53;;
33138;SDS011;19501;50.948;5.316;2022-11-15T07:52:13;22.05;;;7.38;;
33138;SDS011;19501;50.948;5.316;2022-11-15T07:54:39;19.95;;;6.75;;
33138;SDS011;19501;50.948;5.316;2022-11-15T07:57:04;18.17;;;6.43;;
33138;SDS011;19501;50.948;5.316;2022-11-15T07:59:32;16.55;;;6.38;;
33138;SDS011;19501;50.948;5.316;2022-11-15T08:01:58;17.83;;;6.60;;
33138;SDS011;19501;50.948;5.316;2022-11-15T08:04:23;19.33;;;6.55;;
33138;SDS011;19501;50.948;5.316;2022-11-15T08:06:49;18.35;;;6.90;;
33138;SDS011;19501;50.948;5.316;2022-11-15T08:09:15;17.30;;;6.25;;
33138;SDS011;19501;50.948;5.316;2022-11-15T08:11:40;19.40;;;7.22;;
33138;SDS011;19501;50.948;5.316;2022-11-15T08:14:09;18.45;;;7.07;;
33138;SDS011;19501;50.948;5.316;2022-11-15T08:16:35;18.42;;;6.53;;
33138;SDS011;19501;50.948;5.316;2022-11-15T08:19:01;17.08;;;6.22;;
33138;SDS011;19501;50.948;5.316;2022-11-15T08:21:27;18.00;;;6.32;;
33138;SDS011;19501;50.948;5.316;2022-11-15T08:23:53;15.23;;;5.25;;
33138;SDS011;19501;50.948;5.316;2022-11-15T08:26:19;13.10;;;5.00;;
33138;SDS011;19501;50.948;5.316;2022-11-15T08:28:44;15.88;;;5.55;;
33138;SDS011;19501;50.948;5.316;2022-11-15T08:31:14;15.40;;;4.75;;
33138;SDS011;19501;50.948;5.316;2022-11-15T08:33:42;12.97;;;5.07;;
33138;SDS011;19501;50.948;5.316;2022-11-15T08:36:12;13.50;;;4.68;;
33138;SDS011;19501;50.948;5.316;2022-11-15T08:38:39;12.40;;;4.80;;
33138;SDS011;19501;50.948;5.316;2022-11-15T08:41:05;10.43;;;4.05;;
33138;SDS011;19501;50.948;5.316;2022-11-15T08:43:32;11.68;;;4.05;;
33138;SDS011;19501;50.948;5.316;2022-11-15T08:45:58;7.32;;;3.70;;
33138;SDS011;19501;50.948;5.316;2022-11-15T08:48:24;16.10;;;3.58;;
33138;SDS011;19501;50.948;5.316;2022-11-15T08:50:53;8.98;;;3.13;;
33138;SDS011;19501;50.948;5.316;2022-11-15T08:53:20;10.75;;;3.75;;
33138;SDS011;19501;50.948;5.316;2022-11-15T08:55:45;13.00;;;3.30;;
33138;SDS011;19501;50.948;5.316;2022-11-15T08:58:11;9.73;;;3.30;;
33138;SDS011;19501;50.948;5.316;2022-11-15T09:00:37;9.68;;;2.65;;
33138;SDS011;19501;50.948;5.316;2022-11-15T09:03:06;11.70;;;3.00;;
33138;SDS011;19501;50.948;5.316;2022-11-15T09:05:35;9.23;;;2.95;;
33138;SDS011;19501;50.948;5.316;2022-11-15T09:08:02;9.88;;;3.15;;
33138;SDS011;19501;50.948;5.316;2022-11-15T09:10:28;8.40;;;2.70;;
33138;SDS011;19501;50.948;5.316;2022-11-15T09:12:53;8.95;;;2.90;;
33138;SDS011;19501;50.948;5.316;2022-11-15T09:15:19;9.13;;;3.30;;
33138;SDS011;19501;50.948;5.316;2022-11-15T09:17:45;7.82;;;2.75;;
33138;SDS011;19501;50.948;5.316;2022-11-15T09:20:10;7.03;;;2.83;;
33138;SDS011;19501;50.948;5.316;2022-11-15T09:22:37;9.93;;;2.83;;
33138;SDS011;19501;50.948;5.316;2022-11-15T09:25:04;7.88;;;2.80;;
33138;SDS011;19501;50.948;5.316;2022-11-15T09:27:30;6.82;;;2.58;;
33138;SDS011;19501;50.948;5.316;2022-11-15T09:29:56;8.82;;;3.22;;
33138;SDS011;19501;50.948;5.316;2022-11-15T09:32:21;12.32;;;3.00;;
33138;SDS011;19501;50.948;5.316;2022-11-15T09:34:50;8.93;;;3.00;;
33138;SDS011;19501;50.948;5.316;2022-11-15T09:37:16;10.23;;;2.92;;
33138;SDS011;19501;50.948;5.316;2022-11-15T09:39:41;12.93;;;3.30;;
33138;SDS011;19501;50.948;5.316;2022-11-15T09:42:28;10.35;;;3.20;;
33138;SDS011;19501;50.948;5.316;2022-11-15T09:48:15;6.00;;;2.50;;
33138;SDS011;19501;50.948;5.316;2022-11-15T09:50:58;7.68;;;3.00;;
33138;SDS011;19501;50.948;5.316;2022-11-15T10:04:22;18.00;;;3.65;;
33138;SDS011;19501;50.948;5.316;2022-11-15T10:09:47;10.68;;;3.13;;
33138;SDS011;19501;50.948;5.316;2022-11-15T10:12:33;7.07;;;2.70;;
33138;SDS011;19501;50.948;5.316;2022-11-15T10:15:06;8.15;;;2.92;;
33138;SDS011;19501;50.948;5.316;2022-11-15T10:20:26;10.93;;;2.55;;
33138;SDS011;19501;50.948;5.316;2022-11-15T10:22:59;5.80;;;2.30;;
33138;SDS011;19501;50.948;5.316;2022-11-15T10:25:26;10.05;;;2.40;;
33138;SDS011;19501;50.948;5.316;2022-11-15T10:27:55;9.25;;;2.72;;
33138;SDS011;19501;50.948;5.316;2022-11-15T10:30:29;11.02;;;2.78;;
33138;SDS011;19501;50.948;5.316;2022-11-15T10:38:51;12.60;;;2.58;;
33138;SDS011;19501;50.948;5.316;2022-11-15T10:41:18;9.43;;;2.40;;
33138;SDS011;19501;50.948;5.316;2022-11-15T10:49:21;9.57;;;2.80;;
33138;SDS011;19501;50.948;5.316;2022-11-15T10:54:44;6.53;;;2.22;;
33138;SDS011;19501;50.948;5.316;2022-11-15T10:59:46;10.10;;;2.50;;
33138;SDS011;19501;50.948;5.316;2022-11-15T11:10:43;10.43;;;2.20;;
33138;SDS011;19501;50.948;5.316;2022-11-15T11:13:29;14.57;;;3.15;;
33138;SDS011;19501;50.948;5.316;2022-11-15T11:16:09;8.63;;;2.30;;
33138;SDS011;19501;50.948;5.316;2022-11-15T11:21:28;10.23;;;2.30;;
33138;SDS011;19501;50.948;5.316;2022-11-15T11:32:02;7.03;;;2.20;;
33138;SDS011;19501;50.948;5.316;2022-11-15T11:34:52;9.13;;;2.00;;
33138;SDS011;19501;50.948;5.316;2022-11-15T11:47:54;12.97;;;2.67;;
33138;SDS011;19501;50.948;5.316;2022-11-15T11:50:26;11.63;;;2.40;;
33138;SDS011;19501;50.948;5.316;2022-11-15T11:55:47;9.88;;;2.10;;
33138;SDS011;19501;50.948;5.316;2022-11-15T12:01:04;11.73;;;2.20;;
33138;SDS011;19501;50.948;5.316;2022-11-15T12:06:37;6.10;;;1.88;;
33138;SDS011;19501;50.948;5.316;2022-11-15T12:12:23;6.78;;;1.70;;
33138;SDS011;19501;50.948;5.316;2022-11-15T12:17:34;11.23;;;2.65;;
33138;SDS011;19501;50.948;5.316;2022-11-15T12:20:05;9.02;;;2.30;;
33138;SDS011;19501;50.948;5.316;2022-11-15T12:22:53;7.28;;;2.00;;
33138;SDS011;19501;50.948;5.316;2022-11-15T12:25:45;4.60;;;1.75;;
33138;SDS011;19501;50.948;5.316;2022-11-15T12:28:24;9.45;;;2.13;;
33138;SDS011;19501;50.948;5.316;2022-11-15T12:31:03;5.43;;;1.88;;
33138;SDS011;19501;50.948;5.316;2022-11-15T12:33:42;8.38;;;2.10;;
33138;SDS011;19501;50.948;5.316;2022-11-15T12:36:10;7.10;;;2.40;;
33138;SDS011;19501;50.948;5.316;2022-11-15T12:39:11;5.75;;;1.90;;
33138;SDS011;19501;50.948;5.316;2022-11-15T13:28:02;7.63;;;2.28;;
33138;SDS011;19501;50.948;5.316;2022-11-15T13:30:49;3.33;;;1.83;;
33138;SDS011;19501;50.948;5.316;2022-11-15T13:35:55;7.63;;;2.47;;
33138;SDS011;19501;50.948;5.316;2022-11-15T13:40:58;8.35;;;2.47;;
33138;SDS011;19501;50.948;5.316;2022-11-15T13:43:35;7.72;;;3.00;;
33138;SDS011;19501;50.948;5.316;2022-11-15T13:48:30;7.53;;;2.33;;
33138;SDS011;19501;50.948;5.316;2022-11-15T13:50:56;7.68;;;2.42;;
33138;SDS011;19501;50.948;5.316;2022-11-15T13:53:23;8.23;;;2.30;;
33138;SDS011;19501;50.948;5.316;2022-11-15T13:55:49;8.27;;;2.63;;
33138;SDS011;19501;50.948;5.316;2022-11-15T13:58:17;6.68;;;2.50;;
33138;SDS011;19501;50.948;5.316;2022-11-15T14:00:44;12.75;;;2.90;;
33138;SDS011;19501;50.948;5.316;2022-11-15T14:03:19;7.45;;;2.40;;
33138;SDS011;19501;50.948;5.316;2022-11-15T14:06:02;7.63;;;2.20;;
33138;SDS011;19501;50.948;5.316;2022-11-15T14:08:57;6.65;;;2.50;;
33138;SDS011;19501;50.948;5.316;2022-11-15T14:11:35;8.55;;;2.50;;
33138;SDS011;19501;50.948;5.316;2022-11-15T14:16:37;6.18;;;2.40;;
33138;SDS011;19501;50.948;5.316;2022-11-15T14:19:03;8.45;;;2.42;;
33138;SDS011;19501;50.948;5.316;2022-11-15T14:21:31;6.90;;;2.70;;
33138;SDS011;19501;50.948;5.316;2022-11-15T14:26:43;12.07;;;2.88;;
33138;SDS011;19501;50.948;5.316;2022-11-15T14:29:23;8.15;;;2.88;;
33138;SDS011;19501;50.948;5.316;2022-11-15T14:31:53;6.35;;;2.50;;
33138;SDS011;19501;50.948;5.316;2022-11-15T14:34:31;7.13;;;2.40;;
33138;SDS011;19501;50.948;5.316;2022-11-15T14:36:57;8.18;;;2.50;;
33138;SDS011;19501;50.948;5.316;2022-11-15T14:39:23;5.28;;;2.30;;
33138;SDS011;19501;50.948;5.316;2022-11-15T14:41:50;4.60;;;2.35;;
33138;SDS011;19501;50.948;5.316;2022-11-15T14:44:15;5.63;;;2.40;;
33138;SDS011;19501;50.948;5.316;2022-11-15T14:46:43;6.15;;;2.63;;
33138;SDS011;19501;50.948;5.316;2022-11-15T14:49:09;8.20;;;2.97;;
33138;SDS011;19501;50.948;5.316;2022-11-15T14:51:35;8.50;;;2.80;;
33138;SDS011;19501;50.948;5.316;2022-11-15T14:54:01;4.35;;;2.47;;
33138;SDS011;19501;50.948;5.316;2022-11-15T14:56:26;6.45;;;2.63;;
33138;SDS011;19501;50.948;5.316;2022-11-15T14:58:52;5.82;;;2.50;;
33138;SDS011;19501;50.948;5.316;2022-11-15T15:01:23;6.80;;;2.35;;
33138;SDS011;19501;50.948;5.316;2022-11-15T15:03:51;5.63;;;2.40;;
33138;SDS011;19501;50.948;5.316;2022-11-15T15:06:20;9.13;;;2.55;;
33138;SDS011;19501;50.948;5.316;2022-11-15T15:08:47;8.07;;;2.75;;
33138;SDS011;19501;50.948;5.316;2022-11-15T15:11:14;6.47;;;2.88;;
33138;SDS011;19501;50.948;5.316;2022-11-15T15:13:48;5.07;;;2.58;;
33138;SDS011;19501;50.948;5.316;2022-11-15T15:16:14;6.70;;;2.70;;
33138;SDS011;19501;50.948;5.316;2022-11-15T15:18:40;7.57;;;3.35;;
33138;SDS011;19501;50.948;5.316;2022-11-15T15:21:17;9.80;;;3.08;;
33138;SDS011;19501;50.948;5.316;2022-11-15T15:23:46;7.25;;;2.70;;
33138;SDS011;19501;50.948;5.316;2022-11-15T15:26:12;7.25;;;2.72;;
33138;SDS011;19501;50.948;5.316;2022-11-15T15:28:38;8.38;;;3.00;;
33138;SDS011;19501;50.948;5.316;2022-11-15T15:31:04;6.32;;;2.72;;
33138;SDS011;19501;50.948;5.316;2022-11-15T15:33:30;8.95;;;3.00;;
33138;SDS011;19501;50.948;5.316;2022-11-15T15:35:57;6.88;;;2.97;;
33138;SDS011;19501;50.948;5.316;2022-11-15T15:38:23;6.47;;;2.85;;
33138;SDS011;19501;50.948;5.316;2022-11-15T15:40:49;7.82;;;3.38;;
33138;SDS011;19501;50.948;5.316;2022-11-15T15:43:15;7.30;;;3.40;;
33138;SDS011;19501;50.948;5.316;2022-11-15T15:45:41;6.50;;;3.28;;
33138;SDS011;19501;50.948;5.316;2022-11-15T15:48:10;7.15;;;3.17;;
33138;SDS011;19501;50.948;5.316;2022-11-15T15:50:39;8.70;;;3.40;;
33138;SDS011;19501;50.948;5.316;2022-11-15T15:53:08;8.82;;;3.33;;
33138;SDS011;19501;50.948;5.316;2022-11-15T15:55:35;15.05;;;4.22;;
33138;SDS011;19501;50.948;5.316;2022-11-15T15:58:02;18.10;;;7.38;;
33138;SDS011;19501;50.948;5.316;2022-11-15T16:00:29;21.13;;;8.10;;
33138;SDS011;19501;50.948;5.316;2022-11-15T16:02:57;24.77;;;8.32;;
33138;SDS011;19501;50.948;5.316;2022-11-15T16:05:23;17.70;;;6.57;;
33138;SDS011;19501;50.948;5.316;2022-11-15T16:07:49;12.73;;;5.47;;
33138;SDS011;19501;50.948;5.316;2022-11-15T16:10:22;19.33;;;7.25;;
33138;SDS011;19501;50.948;5.316;2022-11-15T16:12:53;23.90;;;8.55;;
33138;SDS011;19501;50.948;5.316;2022-11-15T16:15:21;18.50;;;7.80;;
33138;SDS011;19501;50.948;5.316;2022-11-15T16:17:52;22.27;;;8.85;;
33138;SDS011;19501;50.948;5.316;2022-11-15T16:20:30;27.35;;;9.52;;
33138;SDS011;19501;50.948;5.316;2022-11-15T16:23:01;21.58;;;7.30;;
33138;SDS011;19501;50.948;5.316;2022-11-15T16:25:33;23.33;;;7.47;;
33138;SDS011;19501;50.948;5.316;2022-11-15T16:30:34;16.27;;;6.53;;
33138;SDS011;19501;50.948;5.316;2022-11-15T16:32:59;15.27;;;5.47;;
33138;SDS011;19501;50.948;5.316;2022-11-15T16:35:25;21.90;;;7.25;;
33138;SDS011;19501;50.948;5.316;2022-11-15T16:37:51;17.95;;;6.47;;
33138;SDS011;19501;50.948;5.316;2022-11-15T16:40:23;14.35;;;5.13;;
33138;SDS011;19501;50.948;5.316;2022-11-15T16:45:20;14.18;;;5.78;;
33138;SDS011;19501;50.948;5.316;2022-11-15T16:47:45;13.52;;;6.38;;
33138;SDS011;19501;50.948;5.316;2022-11-15T16:50:22;16.77;;;6.20;;
33138;SDS011;19501;50.948;5.316;2022-11-15T16:52:57;19.15;;;6.85;;
33138;SDS011;19501;50.948;5.316;2022-11-15T16:55:24;16.23;;;6.00;;
33138;SDS011;19501;50.948;5.316;2022-11-15T16:57:52;21.52;;;7.93;;
33138;SDS011;19501;50.948;5.316;2022-11-15T17:00:19;17.52;;;7.00;;
33138;SDS011;19501;50.948;5.316;2022-11-15T17:02:45;16.27;;;6.18;;
33138;SDS011;19501;50.948;5.316;2022-11-15T17:05:12;18.33;;;7.03;;
33138;SDS011;19501;50.948;5.316;2022-11-15T17:07:39;17.48;;;7.05;;
33138;SDS011;19501;50.948;5.316;2022-11-15T17:10:05;16.02;;;6.50;;
33138;SDS011;19501;50.948;5.316;2022-11-15T17:12:33;18.70;;;6.63;;
33138;SDS011;19501;50.948;5.316;2022-11-15T17:14:59;19.15;;;7.00;;
33138;SDS011;19501;50.948;5.316;2022-11-15T17:17:26;17.55;;;7.03;;
33138;SDS011;19501;50.948;5.316;2022-11-15T17:19:52;18.10;;;7.00;;
33138;SDS011;19501;50.948;5.316;2022-11-15T17:22:19;16.10;;;7.10;;
33138;SDS011;19501;50.948;5.316;2022-11-15T17:24:47;15.07;;;6.25;;
33138;SDS011;19501;50.948;5.316;2022-11-15T17:27:13;16.17;;;6.28;;
33138;SDS011;19501;50.948;5.316;2022-11-15T17:29:39;15.90;;;6.93;;
33138;SDS011;19501;50.948;5.316;2022-11-15T17:32:06;16.88;;;7.38;;
33138;SDS011;19501;50.948;5.316;2022-11-15T17:34:35;17.02;;;7.28;;